Coos Head Naval Facility, Oregon
Current Conditions -  °F | °C
As of 2:15 PM on Friday 24 Oct 2014 (Local Time) from KOTH Reporting Station
Overcast Overcast  
Wind Chill: 57°   Ceiling: 3000
Heat Index: 57°   Visibility: 10mi
Dew Point: 57°   Wind: 6mph
Humidity: 100%   Direction: 100°E
Pressure: 29.79"   Gusts: NA
Location:  43.3057°N, 124.056°W
Report Text: KOTH 242115Z 10005KT 10SM OVC030 14/14 A2979 RMK AO1
Loading
Personal Weather Stations






























Interactive Weather Map
Tropical Storm Tracking
New forecast layout! Learn more

10-Day Weather Forecast

Advertisements
Track Severe Weather on mobile